Time;durP1;ratioP1;P1;durP2;ratioP2;P2;SDS_P1;SDS_P2;PMS_P1;PMS_P2;Temp;Humidity;BMP_temperature;BMP_pressure;BME280_temperature;BME280_humidity;BME280_pressure;Samples;Min_cycle;Max_cycle;Signal;HPM_P1;HPM_P2
2021/06/23 00:00:23;;;;;;;7.50;2.77;;;14.10;99.90;;;;;;5124802;27;20199;-55
2021/06/23 00:02:49;;;;;;;4.43;2.73;;;14.10;99.90;;;;;;5115500;27;20221;-54
2021/06/23 00:05:17;;;;;;;7.17;3.13;;;14.20;99.90;;;;;;5125830;27;20575;-53
2021/06/23 00:07:45;;;;;;;7.43;2.50;;;14.20;99.90;;;;;;5108083;27;20240;-51
2021/06/23 00:10:12;;;;;;;5.80;2.63;;;14.20;99.90;;;;;;5125511;27;20193;-49
2021/06/23 00:12:39;;;;;;;5.47;2.50;;;14.20;99.90;;;;;;5122287;27;20208;-47
2021/06/23 00:15:09;;;;;;;3.90;2.30;;;14.20;99.90;;;;;;5122168;27;20557;-47
2021/06/23 00:17:37;;;;;;;11.53;3.10;;;14.20;99.90;;;;;;5121814;27;20195;-47
2021/06/23 00:20:06;;;;;;;8.47;3.00;;;14.20;99.90;;;;;;5106484;27;20228;-47
2021/06/23 00:22:33;;;;;;;7.70;2.83;;;14.20;99.90;;;;;;5101266;28;20216;-53
2021/06/23 00:25:00;;;;;;;7.87;3.63;;;14.30;99.90;;;;;;5105853;27;20208;-47
2021/06/23 00:27:27;;;;;;;8.20;2.97;;;14.30;99.90;;;;;;5114583;27;20236;-55
2021/06/23 00:29:54;;;;;;;8.07;3.20;;;14.30;99.90;;;;;;5124136;27;20700;-49
2021/06/23 00:32:21;;;;;;;13.53;2.97;;;14.40;99.90;;;;;;5124317;27;20588;-52
2021/06/23 00:34:50;;;;;;;5.97;2.93;;;14.30;99.90;;;;;;5117297;27;23200;-47
2021/06/23 00:37:16;;;;;;;7.77;2.83;;;14.30;99.90;;;;;;5125188;27;20197;-53
2021/06/23 00:39:43;;;;;;;4.20;2.53;;;14.30;99.90;;;;;;5105671;27;20212;-47
2021/06/23 00:42:11;;;;;;;7.47;2.63;;;14.30;99.90;;;;;;5123096;27;20208;-50
2021/06/23 00:44:40;;;;;;;8.77;3.07;;;14.30;99.90;;;;;;5121264;27;20185;-49
2021/06/23 00:47:07;;;;;;;10.13;2.57;;;14.40;99.90;;;;;;5125428;27;20197;-47
2021/06/23 00:49:36;;;;;;;10.03;2.90;;;14.30;99.90;;;;;;5114781;27;20181;-47
2021/06/23 00:52:18;;;;;;;6.90;2.40;;;14.20;99.90;;;;;;5123559;27;20644;-54
2021/06/23 00:54:50;;;;;;;8.40;2.83;;;14.20;99.90;;;;;;5123454;27;20192;-50
2021/06/23 00:57:19;;;;;;;7.50;2.67;;;14.20;99.90;;;;;;5107595;27;20265;-52
2021/06/23 00:59:49;;;;;;;9.93;3.23;;;14.30;99.90;;;;;;5121957;27;20213;-50
2021/06/23 01:02:18;;;;;;;8.93;3.20;;;14.30;99.90;;;;;;5121534;27;20717;-52
2021/06/23 01:04:46;;;;;;;8.37;2.80;;;14.30;99.90;;;;;;5122286;27;20200;-48
2021/06/23 01:07:14;;;;;;;8.53;3.27;;;14.20;99.90;;;;;;5105346;27;20254;-48
2021/06/23 01:09:42;;;;;;;7.77;2.80;;;14.20;99.90;;;;;;5098627;28;20185;-49
2021/06/23 01:12:21;;;;;;;5.80;3.17;;;14.20;99.90;;;;;;5100264;27;20236;-50
2021/06/23 01:14:53;;;;;;;6.17;2.77;;;14.20;99.90;;;;;;5117435;27;20184;-47
2021/06/23 01:17:21;;;;;;;9.37;2.77;;;14.20;99.90;;;;;;5122102;27;20543;-52
2021/06/23 01:19:49;;;;;;;6.40;2.73;;;14.20;99.90;;;;;;5112093;27;20219;-54
2021/06/23 01:22:18;;;;;;;6.33;3.27;;;14.20;99.90;;;;;;5116405;27;20235;-53
2021/06/23 01:24:46;;;;;;;7.63;3.43;;;14.30;99.90;;;;;;5134577;27;20565;-48
2021/06/23 01:27:13;;;;;;;8.53;3.03;;;14.20;99.90;;;;;;5095000;27;20201;-55
2021/06/23 01:29:40;;;;;;;6.50;3.03;;;14.20;99.90;;;;;;5116270;27;20318;-47
2021/06/23 01:32:25;;;;;;;7.20;2.80;;;14.30;99.90;;;;;;5119786;27;20216;-48
2021/06/23 01:34:52;;;;;;;9.10;3.70;;;14.20;99.90;;;;;;5122679;27;20275;-48
2021/06/23 01:37:20;;;;;;;9.07;3.60;;;14.20;99.90;;;;;;5116240;27;20217;-55
2021/06/23 01:39:47;;;;;;;8.77;2.97;;;14.30;99.90;;;;;;5099952;28;20221;-51
2021/06/23 01:42:14;;;;;;;6.90;3.37;;;14.20;99.90;;;;;;5093863;28;20244;-51
2021/06/23 01:44:41;;;;;;;5.37;3.03;;;14.20;99.90;;;;;;5115486;27;20283;-50
2021/06/23 01:47:09;;;;;;;11.07;3.73;;;14.20;99.90;;;;;;5120788;27;20195;-53
2021/06/23 01:49:36;;;;;;;9.03;3.80;;;14.20;99.90;;;;;;5116193;27;20212;-47
2021/06/23 01:52:03;;;;;;;9.97;3.50;;;14.20;99.90;;;;;;5122840;27;20262;-49
2021/06/23 01:54:33;;;;;;;11.50;3.60;;;14.20;99.90;;;;;;5103934;27;20795;-49
2021/06/23 01:57:00;;;;;;;7.23;2.97;;;14.20;99.90;;;;;;5102655;28;20585;-48
2021/06/23 01:59:27;;;;;;;7.63;3.30;;;14.30;99.90;;;;;;5093470;28;20300;-48
2021/06/23 02:02:27;;;;;;;12.73;3.47;;;14.30;99.90;;;;;;5117013;28;20223;-55
2021/06/23 02:05:03;;;;;;;7.03;3.00;;;14.30;99.90;;;;;;5123977;27;20557;-47
2021/06/23 02:07:57;;;;;;;7.30;4.40;;;14.30;99.90;;;;;;5120808;28;20187;-48
2021/06/23 02:10:50;;;;;;;8.77;3.33;;;14.30;99.90;;;;;;5096277;27;20201;-52
2021/06/23 02:14:03;;;;;;;10.37;4.13;;;14.30;99.90;;;;;;5093479;28;20611;-55
2021/06/23 02:16:49;;;;;;;11.77;4.07;;;14.30;99.90;;;;;;5118041;28;20729;-49
2021/06/23 02:19:20;;;;;;;10.87;4.50;;;14.30;99.90;;;;;;5118283;28;20209;-53
2021/06/23 02:22:16;;;;;;;10.60;5.60;;;14.30;99.90;;;;;;5117604;27;20225;-52
2021/06/23 02:24:48;;;;;;;6.87;4.20;;;14.20;99.90;;;;;;5116414;27;20300;-49
2021/06/23 02:27:26;;;;;;;9.57;4.60;;;14.20;99.90;;;;;;5122317;27;20188;-48
2021/06/23 02:29:56;;;;;;;14.00;5.57;;;14.20;99.90;;;;;;5112020;27;20201;-47
2021/06/23 02:32:27;;;;;;;11.03;4.83;;;14.20;99.90;;;;;;5121904;27;20216;-49
2021/06/23 02:35:01;;;;;;;15.67;5.70;;;14.10;99.90;;;;;;5120753;27;20197;-52
2021/06/23 02:37:35;;;;;;;11.73;5.73;;;14.20;99.90;;;;;;5117062;27;20184;-47
2021/06/23 02:40:05;;;;;;;14.07;5.20;;;14.10;99.90;;;;;;5127052;27;20212;-48
2021/06/23 02:42:36;;;;;;;11.57;5.37;;;14.20;99.90;;;;;;5099248;27;20255;-47
2021/06/23 02:45:03;;;;;;;9.93;5.10;;;14.20;99.90;;;;;;5105762;28;20194;-47
2021/06/23 02:47:30;;;;;;;15.60;4.70;;;14.20;99.90;;;;;;5109387;27;20201;-47
2021/06/23 02:50:09;;;;;;;13.03;5.33;;;14.20;99.90;;;;;;5124203;27;20189;-51
2021/06/23 02:52:56;;;;;;;9.07;4.73;;;14.20;99.90;;;;;;5127217;27;20220;-49
2021/06/23 02:55:24;;;;;;;16.17;5.20;;;14.30;99.90;;;;;;5122026;27;20196;-54
2021/06/23 02:57:53;;;;;;;12.80;5.10;;;14.30;99.90;;;;;;5121210;27;20204;-51
2021/06/23 03:00:22;;;;;;;8.20;4.80;;;14.30;99.90;;;;;;5121841;27;20765;-51
2021/06/23 03:02:50;;;;;;;15.23;4.93;;;14.30;99.90;;;;;;5103111;27;20220;-48
2021/06/23 03:05:17;;;;;;;11.90;4.83;;;14.30;99.90;;;;;;5122331;27;20196;-53
2021/06/23 03:07:45;;;;;;;15.10;5.17;;;14.30;99.90;;;;;;5125779;27;20192;-54
2021/06/23 03:10:17;;;;;;;14.77;5.30;;;14.30;99.90;;;;;;5122104;27;20200;-54
2021/06/23 03:13:00;;;;;;;13.57;5.00;;;14.30;99.90;;;;;;5107976;27;20241;-53
2021/06/23 03:15:56;;;;;;;8.63;4.90;;;14.30;99.90;;;;;;5103253;28;20197;-54
2021/06/23 03:18:32;;;;;;;14.10;4.90;;;14.30;99.90;;;;;;5106232;27;20265;-51
2021/06/23 03:20:59;;;;;;;17.77;5.30;;;14.30;99.90;;;;;;5126199;27;20217;-50
2021/06/23 03:23:27;;;;;;;13.63;5.30;;;14.30;99.90;;;;;;5121204;27;20933;-52
2021/06/23 03:25:56;;;;;;;13.70;5.03;;;14.40;99.90;;;;;;5125618;27;20193;-48
2021/06/23 03:28:24;;;;;;;8.60;4.70;;;14.40;99.90;;;;;;5107589;27;20296;-55
2021/06/23 03:30:55;;;;;;;14.50;5.50;;;14.40;99.90;;;;;;5105465;28;20201;-47
2021/06/23 03:33:22;;;;;;;14.83;5.07;;;14.50;99.90;;;;;;5092483;27;20216;-53
2021/06/23 03:36:10;;;;;;;11.47;5.47;;;14.50;99.90;;;;;;5123064;27;20246;-55
2021/06/23 03:38:38;;;;;;;13.33;5.97;;;14.50;99.90;;;;;;5102432;28;20197;-50
2021/06/23 03:41:06;;;;;;;12.80;5.50;;;14.50;99.90;;;;;;5105231;28;20224;-55
2021/06/23 03:43:34;;;;;;;11.03;5.63;;;14.40;99.90;;;;;;5080299;28;20213;-50
2021/06/23 03:46:01;;;;;;;11.23;5.70;;;14.40;99.90;;;;;;5103413;28;20207;-47
2021/06/23 03:48:28;;;;;;;10.87;5.70;;;14.50;99.90;;;;;;5067031;28;20205;-53
2021/06/23 03:51:02;;;;;;;12.50;6.83;;;14.40;99.90;;;;;;5104785;28;20203;-52
2021/06/23 03:53:29;;;;;;;13.67;5.77;;;14.40;99.90;;;;;;5096950;28;20217;-48
2021/06/23 03:56:00;;;;;;;10.53;6.00;;;14.40;99.90;;;;;;5101000;28;20523;-48
2021/06/23 03:58:29;;;;;;;18.73;5.77;;;14.40;99.90;;;;;;5077340;28;20436;-50
2021/06/23 04:00:59;;;;;;;15.63;6.97;;;14.40;99.90;;;;;;5077087;28;20312;-52
2021/06/23 04:03:44;;;;;;;13.97;5.60;;;14.40;99.90;;;;;;5096559;28;20205;-51
2021/06/23 04:06:31;;;;;;;14.13;5.57;;;14.40;99.90;;;;;;5075524;28;20913;-50
2021/06/23 04:09:00;;;;;;;14.90;6.20;;;14.40;99.90;;;;;;5103757;28;20207;-48
2021/06/23 04:11:28;;;;;;;19.80;6.60;;;14.50;99.90;;;;;;5101281;28;20271;-50
2021/06/23 04:13:56;;;;;;;15.33;6.03;;;14.50;99.90;;;;;;5103507;28;20305;-47
2021/06/23 04:16:24;;;;;;;14.40;6.47;;;14.50;99.90;;;;;;5089126;28;20201;-55
2021/06/23 04:18:51;;;;;;;12.80;6.27;;;14.50;99.90;;;;;;5102292;28;20790;-49
2021/06/23 04:21:18;;;;;;;15.93;6.80;;;14.60;99.90;;;;;;5080470;28;20243;-56
2021/06/23 04:23:47;;;;;;;14.37;6.77;;;14.60;99.90;;;;;;5103403;28;20712;-51
2021/06/23 04:26:15;;;;;;;18.73;6.80;;;14.60;99.90;;;;;;5101501;28;20250;-55
2021/06/23 04:28:42;;;;;;;14.37;7.63;;;14.60;99.90;;;;;;5103019;27;20273;-50
2021/06/23 04:31:09;;;;;;;16.87;6.40;;;14.50;99.90;;;;;;5090540;28;20205;-53
2021/06/23 04:33:37;;;;;;;10.40;6.83;;;14.50;99.90;;;;;;5081276;28;20198;-50
2021/06/23 04:36:08;;;;;;;13.13;7.03;;;14.60;99.90;;;;;;5078410;28;20267;-54
2021/06/23 04:38:35;;;;;;;18.23;7.23;;;14.60;99.90;;;;;;5097102;27;20927;-49
2021/06/23 04:41:02;;;;;;;11.20;6.40;;;14.60;99.90;;;;;;5104347;27;20224;-54
2021/06/23 04:43:33;;;;;;;12.77;7.00;;;14.70;99.90;;;;;;5093901;27;20933;-51
2021/06/23 04:46:00;;;;;;;15.23;6.93;;;14.70;99.90;;;;;;5103975;27;20193;-49
2021/06/23 04:48:27;;;;;;;16.47;7.17;;;14.70;99.90;;;;;;5104269;27;20196;-49
2021/06/23 04:50:58;;;;;;;16.47;6.40;;;14.80;99.90;;;;;;5105773;27;20193;-52
2021/06/23 04:53:29;;;;;;;18.10;7.27;;;14.80;99.90;;;;;;5085878;27;20883;-51
2021/06/23 04:55:57;;;;;;;17.70;7.57;;;14.80;99.90;;;;;;5101573;27;20280;-50
2021/06/23 04:58:26;;;;;;;18.23;6.60;;;14.80;99.90;;;;;;5102151;27;20217;-48
2021/06/23 05:01:00;;;;;;;14.27;6.67;;;14.80;99.90;;;;;;5110608;27;20565;-50
2021/06/23 05:03:36;;;;;;;14.33;6.87;;;14.80;99.90;;;;;;5086185;27;20828;-48
2021/06/23 05:06:05;;;;;;;20.53;6.17;;;14.80;99.90;;;;;;5098238;28;20201;-55
2021/06/23 05:08:32;;;;;;;16.20;5.97;;;14.80;99.90;;;;;;5089579;28;20193;-52
2021/06/23 05:10:58;;;;;;;21.47;6.63;;;14.90;99.90;;;;;;5102809;28;20199;-51
2021/06/23 05:13:26;;;;;;;11.03;6.30;;;14.90;99.90;;;;;;5077387;28;20221;-52
2021/06/23 05:15:55;;;;;;;13.83;5.60;;;15.00;99.90;;;;;;5082216;28;20198;-48
2021/06/23 05:18:21;;;;;;;17.93;6.23;;;15.00;99.90;;;;;;5076969;27;20196;-54
2021/06/23 05:20:48;;;;;;;15.30;5.97;;;15.00;99.90;;;;;;5107702;27;20223;-48
2021/06/23 05:23:16;;;;;;;15.43;5.93;;;15.00;99.90;;;;;;5098187;27;20244;-53
2021/06/23 05:25:43;;;;;;;18.30;6.40;;;15.10;99.90;;;;;;5115731;27;20197;-48
2021/06/23 05:28:10;;;;;;;14.63;6.10;;;15.10;99.90;;;;;;5097155;27;20215;-56
2021/06/23 05:30:36;;;;;;;20.43;6.27;;;15.10;99.90;;;;;;5113171;27;20199;-48
2021/06/23 05:33:03;;;;;;;12.90;6.77;;;15.20;99.90;;;;;;5123651;27;20727;-54
2021/06/23 05:35:30;;;;;;;12.60;6.17;;;15.20;99.90;;;;;;5103335;27;20366;-48
2021/06/23 05:37:56;;;;;;;14.57;6.20;;;15.20;99.90;;;;;;5089012;28;20334;-50
2021/06/23 05:40:24;;;;;;;14.40;6.00;;;15.30;99.90;;;;;;5097314;28;20201;-48
2021/06/23 05:42:51;;;;;;;15.07;6.07;;;15.30;99.90;;;;;;5103983;28;20578;-50
2021/06/23 05:45:17;;;;;;;15.37;5.93;;;15.30;99.90;;;;;;5093886;28;20231;-55
2021/06/23 05:47:44;;;;;;;18.97;6.90;;;15.50;99.90;;;;;;5107856;27;20193;-48
2021/06/23 05:50:11;;;;;;;14.30;6.70;;;15.50;99.90;;;;;;5114848;27;20668;-55
2021/06/23 05:52:38;;;;;;;16.03;6.93;;;15.50;99.90;;;;;;5098080;28;20219;-48
2021/06/23 05:55:05;;;;;;;16.83;8.33;;;15.60;99.90;;;;;;5094025;27;20296;-53
2021/06/23 05:57:33;;;;;;;13.20;7.60;;;15.70;99.90;;;;;;5114644;27;20177;-51
2021/06/23 06:00:00;;;;;;;21.53;7.17;;;15.70;99.90;;;;;;5105285;28;20567;-50
2021/06/23 06:02:26;;;;;;;21.33;7.47;;;15.60;99.90;;;;;;5108683;28;20203;-53
2021/06/23 06:04:53;;;;;;;16.90;7.53;;;15.50;99.90;;;;;;5114306;28;20199;-54
2021/06/23 06:07:20;;;;;;;20.97;8.10;;;15.60;99.90;;;;;;5087850;28;20202;-54
2021/06/23 06:09:46;;;;;;;13.53;6.27;;;15.60;99.90;;;;;;5076178;28;20215;-48
2021/06/23 06:12:13;;;;;;;15.70;6.63;;;15.70;99.90;;;;;;5104078;27;20217;-48
2021/06/23 06:14:41;;;;;;;19.87;6.90;;;15.70;99.90;;;;;;5091310;28;20197;-55
2021/06/23 06:17:08;;;;;;;13.97;7.23;;;15.70;99.90;;;;;;5091282;28;20197;-54
2021/06/23 06:19:34;;;;;;;16.63;6.80;;;15.70;99.90;;;;;;5103872;28;20267;-52
2021/06/23 06:22:01;;;;;;;14.27;7.00;;;15.80;99.90;;;;;;5080204;28;20750;-54
2021/06/23 06:24:27;;;;;;;15.03;7.40;;;15.80;99.90;;;;;;5079166;28;20216;-52
2021/06/23 06:26:54;;;;;;;12.83;7.67;;;15.80;99.90;;;;;;5099124;28;20201;-49
2021/06/23 06:29:21;;;;;;;15.30;6.33;;;15.80;99.90;;;;;;5096955;28;20204;-52
2021/06/23 06:31:49;;;;;;;16.20;6.57;;;15.90;99.90;;;;;;5098115;28;20688;-48
2021/06/23 06:34:15;;;;;;;14.70;6.50;;;15.90;99.90;;;;;;5100997;28;20204;-56
2021/06/23 06:36:43;;;;;;;16.30;6.20;;;15.80;99.90;;;;;;5099411;28;20191;-47
2021/06/23 06:39:09;;;;;;;16.73;6.83;;;15.90;99.90;;;;;;5084126;28;20202;-52
2021/06/23 06:41:36;;;;;;;17.40;5.63;;;15.80;99.90;;;;;;5068020;28;20216;-49
2021/06/23 06:44:03;;;;;;;14.90;6.23;;;15.80;99.90;;;;;;5093795;28;20284;-52
2021/06/23 06:46:30;;;;;;;14.97;5.73;;;15.90;99.90;;;;;;5085567;28;20896;-47
2021/06/23 06:48:58;;;;;;;12.60;5.50;;;16.00;99.90;;;;;;5101386;28;20197;-49
2021/06/23 06:51:24;;;;;;;15.67;5.20;;;16.00;99.90;;;;;;5098248;28;20189;-50
2021/06/23 06:53:51;;;;;;;15.00;5.77;;;16.00;99.90;;;;;;5100093;28;20212;-50
2021/06/23 06:56:18;;;;;;;10.10;4.73;;;16.00;99.90;;;;;;5077505;28;20201;-50
2021/06/23 06:58:44;;;;;;;10.23;4.70;;;16.00;99.90;;;;;;5100073;28;20201;-51
2021/06/23 07:01:11;;;;;;;13.70;4.27;;;16.00;99.90;;;;;;5088023;28;20236;-51
2021/06/23 07:03:37;;;;;;;10.33;4.70;;;16.00;99.90;;;;;;5097669;28;20221;-47
2021/06/23 07:06:06;;;;;;;10.53;5.07;;;16.00;99.90;;;;;;5101913;28;20194;-53
2021/06/23 07:08:32;;;;;;;15.67;5.27;;;16.10;99.90;;;;;;5098617;28;20185;-50
2021/06/23 07:10:59;;;;;;;12.63;5.47;;;16.20;99.90;;;;;;5083872;28;20197;-52
2021/06/23 07:13:26;;;;;;;11.70;4.90;;;16.30;99.90;;;;;;5096352;28;20218;-47
2021/06/23 07:15:52;;;;;;;11.90;5.07;;;16.30;99.90;;;;;;5100167;28;20193;-49
2021/06/23 07:18:19;;;;;;;10.90;4.10;;;16.40;99.90;;;;;;5096177;28;20206;-54
2021/06/23 07:20:46;;;;;;;9.40;4.53;;;16.50;99.90;;;;;;5105432;28;20209;-47
2021/06/23 07:23:14;;;;;;;5.53;3.80;;;16.60;99.90;;;;;;5103735;28;20223;-53
2021/06/23 07:25:40;;;;;;;13.83;4.17;;;16.70;99.90;;;;;;5082281;28;20210;-51
2021/06/23 07:28:09;;;;;;;7.80;3.80;;;16.70;99.90;;;;;;5100770;28;20229;-52
2021/06/23 07:30:36;;;;;;;12.17;3.73;;;16.70;99.90;;;;;;5103544;28;20196;-50
2021/06/23 07:33:06;;;;;;;9.37;3.57;;;16.80;99.90;;;;;;5081047;28;20313;-54
2021/06/23 07:38:18;;;;;;;8.53;4.20;;;17.10;99.90;;;;;;5100837;28;20268;-53
2021/06/23 07:40:52;;;;;;;8.30;4.20;;;17.10;99.90;;;;;;5104254;28;20215;-47
2021/06/23 07:43:19;;;;;;;5.93;3.37;;;17.20;99.90;;;;;;5085693;28;20759;-52
2021/06/23 07:45:49;;;;;;;8.43;3.07;;;17.40;99.90;;;;;;5104679;28;20189;-51
2021/06/23 07:48:16;;;;;;;10.83;3.90;;;17.50;99.90;;;;;;5084756;28;20237;-52
2021/06/23 07:50:48;;;;;;;7.53;3.50;;;17.60;99.90;;;;;;5104129;28;20517;-46
2021/06/23 07:53:21;;;;;;;5.60;3.23;;;17.80;99.90;;;;;;5096496;28;20551;-51
2021/06/23 07:55:51;;;;;;;6.60;3.03;;;17.80;99.90;;;;;;5105451;28;20193;-48
2021/06/23 08:09:14;;;;;;;5.47;2.90;;;17.80;99.90;;;;;;5123819;27;20235;-49
2021/06/23 08:11:45;;;;;;;6.40;2.63;;;17.80;99.90;;;;;;5112800;27;20202;-49
2021/06/23 08:14:12;;;;;;;7.27;2.97;;;17.80;99.90;;;;;;5084882;28;20197;-52
2021/06/23 08:16:39;;;;;;;4.53;2.97;;;17.70;99.90;;;;;;5108112;27;20185;-49
2021/06/23 08:19:06;;;;;;;4.17;2.57;;;17.60;99.90;;;;;;5090096;28;20212;-53
2021/06/23 08:21:33;;;;;;;6.87;2.60;;;17.70;99.90;;;;;;5085857;28;20201;-47
2021/06/23 08:23:59;;;;;;;9.17;2.53;;;17.80;99.90;;;;;;5103469;28;20194;-47
2021/06/23 08:26:26;;;;;;;4.77;2.90;;;17.80;99.90;;;;;;5105244;27;20203;-48
2021/06/23 08:28:54;;;;;;;5.43;4.03;;;17.80;99.90;;;;;;5092672;27;20663;-47
2021/06/23 08:31:21;;;;;;;6.67;4.00;;;17.70;99.90;;;;;;5110451;27;20217;-49
2021/06/23 08:33:48;;;;;;;8.30;4.17;;;17.60;99.90;;;;;;5100509;27;20658;-51
2021/06/23 08:36:14;;;;;;;8.47;4.10;;;17.50;99.90;;;;;;5092500;28;20209;-51
2021/06/23 08:38:41;;;;;;;6.60;3.67;;;17.50;99.90;;;;;;5101314;28;20200;-47
2021/06/23 08:41:08;;;;;;;6.00;4.23;;;17.40;99.90;;;;;;5101532;28;20201;-52
2021/06/23 08:43:34;;;;;;;10.57;4.00;;;17.40;99.90;;;;;;5088147;28;21601;-47
2021/06/23 08:46:04;;;;;;;14.57;4.43;;;17.40;99.90;;;;;;5103842;28;20791;-51
2021/06/23 08:48:31;;;;;;;6.87;3.60;;;17.40;99.90;;;;;;5100553;28;20196;-49
2021/06/23 08:51:03;;;;;;;5.80;3.30;;;17.40;99.90;;;;;;5097657;28;20193;-50
2021/06/23 08:53:30;;;;;;;7.40;3.93;;;17.40;99.90;;;;;;5101468;28;20633;-50
2021/06/23 08:55:57;;;;;;;9.93;3.40;;;17.40;99.90;;;;;;5104151;28;20190;-52
2021/06/23 08:58:24;;;;;;;8.07;3.30;;;17.50;99.90;;;;;;5093611;27;24694;-51
2021/06/23 09:00:52;;;;;;;7.13;3.57;;;17.50;99.90;;;;;;5115675;27;20196;-53
2021/06/23 09:03:20;;;;;;;7.57;3.70;;;17.60;99.90;;;;;;5109578;27;20223;-49
2021/06/23 09:05:52;;;;;;;6.07;3.10;;;17.70;99.90;;;;;;5100209;27;20216;-47
2021/06/23 09:08:30;;;;;;;4.43;3.20;;;17.80;99.90;;;;;;5096993;28;20200;-53
2021/06/23 09:10:57;;;;;;;6.03;3.87;;;17.90;99.90;;;;;;5103373;28;20193;-51
2021/06/23 09:13:24;;;;;;;8.30;3.73;;;17.90;99.90;;;;;;5100357;28;20299;-47
2021/06/23 09:15:54;;;;;;;8.73;3.93;;;18.00;99.90;;;;;;5089027;28;20208;-49
2021/06/23 09:18:25;;;;;;;6.50;3.50;;;18.10;99.90;;;;;;5099639;28;20265;-50
2021/06/23 09:20:54;;;;;;;4.90;3.20;;;18.20;99.90;;;;;;5103007;28;20213;-46
2021/06/23 09:23:40;;;;;;;12.43;4.90;;;18.30;99.90;;;;;;5095914;27;20861;-49
2021/06/23 09:26:19;;;;;;;6.47;3.43;;;18.40;99.90;;;;;;5106551;27;20666;-51
2021/06/23 09:29:04;;;;;;;8.33;4.90;;;18.30;99.90;;;;;;5109012;27;20207;-50
2021/06/23 09:31:52;;;;;;;8.00;3.60;;;18.30;99.90;;;;;;5090502;28;20910;-52
2021/06/23 09:34:25;;;;;;;8.73;4.27;;;18.40;99.90;;;;;;5098100;28;20195;-53
2021/06/23 09:36:52;;;;;;;7.33;3.67;;;18.50;99.90;;;;;;5097242;28;20205;-50
2021/06/23 09:39:20;;;;;;;8.13;4.47;;;18.60;99.90;;;;;;5099591;28;20185;-54
2021/06/23 09:41:48;;;;;;;6.33;4.53;;;18.70;99.90;;;;;;5097595;28;20236;-48
2021/06/23 09:44:15;;;;;;;8.13;3.87;;;18.80;99.90;;;;;;5088989;27;20301;-48
2021/06/23 09:46:43;;;;;;;4.67;3.40;;;18.90;99.90;;;;;;5096303;27;20201;-53
2021/06/23 09:49:11;;;;;;;4.97;3.70;;;;;;;;;;5095453;28;20205;-53
2021/06/23 09:51:41;;;;;;;7.43;3.90;;;;;;;;;;5088383;28;20186;-54
2021/06/23 09:54:08;;;;;;;5.77;3.50;;;;;;;;;;5088730;28;20197;-54
2021/06/23 09:56:38;;;;;;;5.80;4.33;;;;;;;;;;5097054;28;20276;-52
2021/06/23 09:59:06;;;;;;;7.70;4.00;;;;;;;;;;5097157;28;20955;-47
2021/06/23 10:01:38;;;;;;;10.20;3.80;;;;;;;;;;5075964;28;20566;-52
2021/06/23 10:04:06;;;;;;;8.00;3.87;;;;;;;;;;5087433;28;20309;-48
2021/06/23 10:06:33;;;;;;;8.43;3.00;;;;;;;;;;5094547;28;20190;-54
2021/06/23 10:09:16;;;;;;;8.97;3.83;;;;;;;;;;5086801;28;20193;-52
2021/06/23 10:11:43;;;;;;;8.83;3.50;;;;;;;;;;5085122;28;20272;-53
2021/06/23 10:14:11;;;;;;;4.87;3.40;;;;;;;;;;5095325;28;20815;-48
2021/06/23 10:16:39;;;;;;;7.17;3.13;;;;;;;;;;5076543;28;20202;-53
2021/06/23 10:19:07;;;;;;;6.73;3.30;;;;;;;;;;5082306;28;20599;-50
2021/06/23 10:21:34;;;;;;;8.30;3.20;;;;;;;;;;5088131;28;20205;-50
2021/06/23 10:24:01;;;;;;;6.67;3.20;;;;;;;;;;5096798;28;20854;-64
2021/06/23 10:26:30;;;;;;;8.50;4.40;;;;;;;;;;5097581;28;20199;-62
2021/06/23 10:28:58;;;;;;;10.57;3.83;;;;;;;;;;5078917;28;20797;-63
2021/06/23 10:31:26;;;;;;;6.13;3.17;;;;;;;;;;5078538;28;20204;-63
2021/06/23 10:33:54;;;;;;;6.17;3.30;;;;;;;;;;5093127;28;20217;-65
2021/06/23 10:36:23;;;;;;;4.20;2.60;;;;;;;;;;5097480;28;20232;-64
2021/06/23 10:38:51;;;;;;;4.10;2.90;;;;;;;;;;5091031;28;20914;-64
2021/06/23 10:41:18;;;;;;;5.27;3.33;;;19.20;99.90;;;;;;5083281;28;20212;-63
2021/06/23 10:44:17;;;;;;;9.57;4.13;;;19.30;99.90;;;;;;5085503;28;20729;-53
2021/06/23 10:46:45;;;;;;;4.43;2.90;;;19.40;99.90;;;;;;5091771;27;20662;-51
2021/06/23 10:49:15;;;;;;;8.33;3.77;;;19.40;99.90;;;;;;5107464;27;20557;-48
2021/06/23 10:51:43;;;;;;;4.97;3.10;;;19.50;99.90;;;;;;5098846;27;20202;-51
2021/06/23 10:54:40;;;;;;;3.17;2.47;;;19.60;99.90;;;;;;5099224;27;20210;-45
2021/06/23 10:57:25;;;;;;;9.20;3.33;;;19.50;99.90;;;;;;5103257;27;20201;-46
2021/06/23 10:59:55;;;;;;;4.30;2.23;;;19.60;99.90;;;;;;5101036;27;20212;-47
2021/06/23 11:02:30;;;;;;;6.20;2.90;;;19.70;99.90;;;;;;5090479;28;20221;-46
2021/06/23 11:05:14;;;;;;;5.40;2.47;;;19.60;99.90;;;;;;5100837;28;20181;-46
2021/06/23 11:07:43;;;;;;;5.83;2.67;;;19.70;99.90;;;;;;5073536;28;20193;-53
2021/06/23 11:10:28;;;;;;;3.47;2.70;;;19.80;99.90;;;;;;5108899;27;20284;-46
2021/06/23 11:12:57;;;;;;;4.80;2.80;;;20.00;99.90;;;;;;5100143;27;20202;-46
2021/06/23 11:15:35;;;;;;;2.57;2.10;;;20.10;99.90;;;;;;5103868;27;20208;-48
2021/06/23 11:18:23;;;;;;;5.97;2.50;;;20.40;99.90;;;;;;5097349;27;20209;-48
2021/06/23 11:20:52;;;;;;;8.03;2.47;;;20.50;99.80;;;;;;5092642;28;20260;-49
2021/06/23 11:23:42;;;;;;;4.40;2.60;;;20.70;99.90;;;;;;5090633;27;20232;-48
2021/06/23 11:26:10;;;;;;;5.87;3.30;;;20.80;99.10;;;;;;5103999;27;20685;-50
2021/06/23 11:28:37;;;;;;;7.43;3.23;;;20.50;99.90;;;;;;5105505;27;20244;-52
2021/06/23 11:31:09;;;;;;;7.90;3.53;;;20.40;99.90;;;;;;5096603;28;20190;-48
2021/06/23 11:33:48;;;;;;;4.07;2.73;;;20.40;99.90;;;;;;5084834;28;20210;-52
2021/06/23 11:36:18;;;;;;;4.77;2.70;;;20.50;99.90;;;;;;5096122;28;20193;-47
2021/06/23 11:38:46;;;;;;;6.50;3.00;;;20.50;99.90;;;;;;5076104;28;20288;-53
2021/06/23 11:41:15;;;;;;;8.33;2.80;;;20.50;99.90;;;;;;5103587;28;20554;-47
2021/06/23 11:43:42;;;;;;;7.60;3.00;;;20.50;99.90;;;;;;5099170;28;20240;-51
2021/06/23 11:46:13;;;;;;;4.93;2.67;;;20.40;99.90;;;;;;5096723;28;20202;-48
2021/06/23 11:48:41;;;;;;;5.93;2.90;;;20.50;99.90;;;;;;5087237;28;20205;-52
2021/06/23 11:51:09;;;;;;;5.40;3.07;;;20.50;99.90;;;;;;5099494;28;20215;-51
2021/06/23 11:53:36;;;;;;;5.63;2.70;;;20.50;99.90;;;;;;5086735;28;20216;-53
2021/06/23 11:56:04;;;;;;;6.10;2.70;;;20.60;99.90;;;;;;5083989;28;20302;-50
2021/06/23 11:58:31;;;;;;;6.27;2.70;;;20.60;99.90;;;;;;5095339;27;20197;-52
2021/06/23 12:00:57;;;;;;;5.23;2.70;;;20.60;99.90;;;;;;5103512;27;20181;-49
2021/06/23 12:03:25;;;;;;;4.50;2.60;;;20.60;99.90;;;;;;5088345;27;20561;-47
2021/06/23 12:05:52;;;;;;;5.00;2.87;;;20.60;99.90;;;;;;5093228;27;20834;-49
2021/06/23 12:08:19;;;;;;;5.27;2.30;;;20.60;99.90;;;;;;5104754;27;20208;-53
2021/06/23 12:10:46;;;;;;;3.63;2.83;;;20.60;99.90;;;;;;5100495;27;20204;-49
2021/06/23 12:13:15;;;;;;;5.90;2.97;;;20.60;99.90;;;;;;5098226;27;20695;-49
2021/06/23 12:15:42;;;;;;;7.20;2.90;;;20.60;99.90;;;;;;5106564;27;20304;-52
2021/06/23 12:18:10;;;;;;;4.77;2.87;;;20.60;99.90;;;;;;5083826;28;20209;-47
2021/06/23 12:20:41;;;;;;;5.60;2.70;;;20.70;99.90;;;;;;5093306;27;20198;-50
2021/06/23 12:23:09;;;;;;;4.53;2.83;;;20.60;99.90;;;;;;5110676;27;20709;-50
2021/06/23 12:25:39;;;;;;;4.97;2.97;;;20.50;99.90;;;;;;5094504;27;20207;-51
2021/06/23 12:28:08;;;;;;;6.70;3.57;;;20.30;99.90;;;;;;5098937;28;20277;-47
2021/06/23 12:30:35;;;;;;;10.00;3.63;;;20.20;99.90;;;;;;5097889;28;20261;-50
2021/06/23 12:33:04;;;;;;;5.07;2.80;;;20.30;99.90;;;;;;5093888;27;20236;-46
2021/06/23 12:35:31;;;;;;;7.07;3.30;;;20.40;99.90;;;;;;5094282;27;20228;-53
2021/06/23 12:37:59;;;;;;;7.30;3.13;;;20.40;99.90;;;;;;5091582;28;20793;-46
2021/06/23 12:40:27;;;;;;;15.07;4.00;;;20.50;99.90;;;;;;5098324;28;20605;-53
2021/06/23 12:42:54;;;;;;;5.03;3.53;;;20.60;99.90;;;;;;5091198;28;20213;-49
2021/06/23 12:45:20;;;;;;;6.13;3.77;;;20.70;99.90;;;;;;5099519;28;20205;-48
2021/06/23 12:47:47;;;;;;;7.13;3.60;;;20.70;99.90;;;;;;5092966;27;20208;-51
2021/06/23 12:50:17;;;;;;;4.87;3.07;;;20.60;99.90;;;;;;5101313;27;20200;-49
2021/06/23 12:52:44;;;;;;;7.20;3.27;;;20.80;99.90;;;;;;5113951;27;20213;-53
2021/06/23 12:55:13;;;;;;;8.00;4.00;;;21.10;99.90;;;;;;5099971;27;20248;-47
2021/06/23 12:57:40;;;;;;;6.23;3.70;;;21.10;99.90;;;;;;5097294;27;20246;-53
2021/06/23 13:00:10;;;;;;;7.97;3.27;;;21.30;99.90;;;;;;5097622;28;20201;-46
2021/06/23 13:02:37;;;;;;;6.00;3.30;;;21.60;99.90;;;;;;5097246;28;20690;-51
2021/06/23 13:05:04;;;;;;;8.37;3.67;;;21.80;99.90;;;;;;5077247;28;20289;-52
2021/06/23 13:07:31;;;;;;;6.70;3.97;;;21.80;99.90;;;;;;5097179;27;20204;-50
2021/06/23 13:10:00;;;;;;;7.97;3.40;;;21.80;99.90;;;;;;5107837;27;20200;-45
2021/06/23 13:12:28;;;;;;;5.20;3.50;;;21.70;99.90;;;;;;5093831;27;20216;-50
2021/06/23 13:14:55;;;;;;;6.47;3.93;;;21.60;99.90;;;;;;5095069;27;20189;-45
2021/06/23 13:17:22;;;;;;;7.30;3.10;;;22.00;99.80;;;;;;5096439;27;21557;-47